Time;durP1;ratioP1;P1;durP2;ratioP2;P2;SDS_P1;SDS_P2;PMS_P1;PMS_P2;Temp;Humidity;BMP_temperature;BMP_pressure;BME280_temperature;BME280_humidity;BME280_pressure;Samples;Min_cycle;Max_cycle;Signal;HPM_P1;HPM_P2
2023/03/02 00:00:15;;;;;;;1.38;0.70;;;;;;;9.42;45.54;101549.19;4950088;28;20055;-76
2023/03/02 00:02:45;;;;;;;1.83;0.30;;;;;;;9.35;44.46;101544.56;4948308;28;20441;-74
2023/03/02 00:05:14;;;;;;;3.28;0.55;;;;;;;9.31;46.57;101540.03;4931848;29;20549;-74
2023/03/02 00:07:42;;;;;;;0.98;0.60;;;;;;;9.36;45.35;101528.22;4931550;29;20652;-74
2023/03/02 00:10:12;;;;;;;2.60;0.40;;;;;;;9.39;45.72;101525.81;4931703;29;20405;-74
2023/03/02 00:12:41;;;;;;;1.33;0.43;;;;;;;9.40;45.46;101529.25;4936129;29;20094;-74
2023/03/02 00:15:10;;;;;;;1.63;0.50;;;;;;;9.44;46.83;101526.91;4943252;29;20068;-75
2023/03/02 00:17:39;;;;;;;3.42;0.50;;;;;;;9.49;46.85;101528.81;4925251;29;20056;-75
2023/03/02 00:20:11;;;;;;;0.80;0.50;;;;;;;9.49;46.43;101528.81;4938647;29;20138;-74
2023/03/02 00:22:40;;;;;;;1.33;0.70;;;;;;;9.44;46.74;101532.06;4932120;28;20055;-74
2023/03/02 00:25:09;;;;;;;1.38;0.50;;;;;;;9.39;46.63;101532.66;4924461;29;20056;-73
2023/03/02 00:27:38;;;;;;;1.27;0.40;;;;;;;9.42;48.89;101532.81;4934833;29;20540;-74
2023/03/02 00:30:08;;;;;;;0.93;0.50;;;;;;;9.39;48.50;101540.41;4927889;29;20078;-74
2023/03/02 00:32:36;;;;;;;2.42;0.65;;;;;;;9.39;51.12;101536.13;4927035;29;20048;-73
2023/03/02 00:35:05;;;;;;;2.13;0.43;;;;;;;9.39;47.07;101536.13;4927738;29;20592;-74
2023/03/02 00:37:36;;;;;;;0.77;0.40;;;;;;;9.33;45.67;101533.25;4920611;29;20520;-74
2023/03/02 00:40:08;;;;;;;0.40;0.30;;;;;;;9.26;46.42;101531.19;4931795;29;20112;-75
2023/03/02 00:42:37;;;;;;;3.65;0.50;;;;;;;9.18;44.61;101528.25;4924741;29;20482;-75
2023/03/02 00:45:07;;;;;;;1.38;0.57;;;;;;;9.14;50.07;101531.50;4923011;29;20524;-75
2023/03/02 00:47:37;;;;;;;3.13;0.60;;;;;;;9.16;50.24;101526.41;4921616;29;20048;-74
2023/03/02 00:50:06;;;;;;;2.45;1.02;;;;;;;9.18;49.52;101527.34;4916410;29;20493;-74
2023/03/02 00:52:37;;;;;;;1.38;0.40;;;;;;;9.19;49.40;101521.41;4922099;29;20054;-73
2023/03/02 00:55:06;;;;;;;2.88;1.15;;;;;;;9.16;49.12;101523.81;4932637;29;20122;-73
2023/03/02 00:57:35;;;;;;;0.80;0.40;;;;;;;9.16;47.73;101516.06;4923892;29;20063;-73
2023/03/02 01:00:04;;;;;;;1.40;0.60;;;;;;;9.19;49.94;101523.97;4925676;29;20047;-73
2023/03/02 01:02:33;;;;;;;0.90;0.50;;;;;;;9.18;51.22;101522.19;4928167;28;20048;-75
2023/03/02 01:05:01;;;;;;;1.45;0.88;;;;;;;9.12;48.95;101512.47;4962927;28;20047;-75
2023/03/02 01:07:30;;;;;;;1.75;0.95;;;;;;;9.06;47.47;101508.72;4973613;28;20054;-75
2023/03/02 01:10:00;;;;;;;5.18;1.60;;;;;;;8.93;47.83;101507.22;4968634;28;20827;-75
2023/03/02 01:12:36;;;;;;;3.08;1.48;;;;;;;8.90;50.68;101505.38;4981878;28;20413;-74
2023/03/02 01:15:06;;;;;;;5.30;1.10;;;;;;;8.90;48.86;101505.38;4978469;28;20057;-75
2023/03/02 01:17:34;;;;;;;4.32;0.90;;;;;;;8.85;48.10;101512.03;4972051;28;20058;-76
2023/03/02 01:20:05;;;;;;;2.85;0.60;;;;;;;8.80;48.90;101509.22;4966182;28;20480;-75
2023/03/02 01:22:33;;;;;;;3.70;0.80;;;;;;;8.79;48.79;101522.94;4968820;28;20051;-74
2023/03/02 01:25:04;;;;;;;0.60;0.40;;;;;;;8.77;50.38;101518.50;4963518;28;20743;-74
2023/03/02 01:27:33;;;;;;;1.42;0.70;;;;;;;8.76;50.18;101517.63;4963072;28;20050;-73
2023/03/02 01:30:04;;;;;;;1.15;0.60;;;;;;;8.76;49.66;101521.91;4966851;28;20055;-74
2023/03/02 01:32:33;;;;;;;1.20;0.85;;;;;;;8.68;50.42;101518.06;4969912;28;20046;-73
2023/03/02 01:35:01;;;;;;;0.98;0.57;;;;;;;8.63;49.81;101511.78;4965189;28;20055;-72
2023/03/02 01:37:30;;;;;;;3.13;0.57;;;;;;;8.57;50.61;101521.00;4969494;28;20054;-73
2023/03/02 01:39:58;;;;;;;1.70;0.50;;;;;;;8.53;50.28;101511.34;4974940;28;20104;-73
2023/03/02 01:42:28;;;;;;;1.13;0.88;;;;;;;8.46;50.60;101516.13;4966763;28;20109;-72
2023/03/02 01:44:57;;;;;;;3.50;0.60;;;;;;;8.40;51.11;101511.53;4969293;28;20144;-72
2023/03/02 01:47:29;;;;;;;1.40;0.70;;;;;;;8.37;51.74;101513.91;4973859;28;20046;-72
2023/03/02 01:50:00;;;;;;;0.50;0.40;;;;;;;8.36;52.47;101525.03;4965930;28;20280;-72
2023/03/02 01:52:32;;;;;;;3.60;0.80;;;;;;;8.33;52.44;101530.03;4969783;28;20123;-73
2023/03/02 01:55:05;;;;;;;2.47;1.10;;;;;;;8.31;52.21;101532.53;4958610;28;20055;-73
2023/03/02 01:57:42;;;;;;;3.35;1.80;;;;;;;8.31;52.23;101526.50;4965703;28;20047;-73
2023/03/02 02:00:15;;;;;;;4.82;1.90;;;;;;;8.33;53.24;101530.03;4959940;28;20054;-73
2023/03/02 02:02:44;;;;;;;2.58;1.38;;;;;;;8.31;53.94;101537.69;4960203;28;20072;-73
2023/03/02 02:05:19;;;;;;;3.65;1.70;;;;;;;8.30;52.79;101532.47;4967423;28;20058;-73
2023/03/02 02:07:48;;;;;;;4.00;1.50;;;;;;;8.27;52.77;101542.59;4964481;28;20043;-72
2023/03/02 02:10:17;;;;;;;2.33;1.63;;;;;;;8.24;52.90;101539.88;4962048;28;20499;-72
2023/03/02 02:12:47;;;;;;;4.88;2.10;;;;;;;8.23;53.29;101538.13;4957204;28;20385;-72
2023/03/02 02:15:16;;;;;;;3.70;1.88;;;;;;;8.18;53.01;101546.50;4968245;28;20488;-72
2023/03/02 02:17:45;;;;;;;2.03;1.30;;;;;;;8.16;53.51;101552.38;4960001;28;20055;-72
2023/03/02 02:20:24;;;;;;;1.77;1.20;;;;;;;8.09;54.31;101561.50;4969544;28;20054;-73
2023/03/02 02:23:06;;;;;;;5.45;1.42;;;;;;;7.99;54.03;101543.75;4980247;28;20073;-72
2023/03/02 02:25:46;;;;;;;1.63;1.50;;;;;;;8.03;54.89;101550.84;4970784;28;20058;-72
2023/03/02 02:28:21;;;;;;;2.20;0.90;;;;;;;8.04;54.98;101557.78;4968324;28;20066;-73
2023/03/02 02:30:54;;;;;;;2.40;0.95;;;;;;;8.00;55.15;101540.41;4971375;28;20745;-74
2023/03/02 02:33:26;;;;;;;4.00;1.08;;;;;;;8.08;55.99;101554.53;4977352;28;20484;-72
2023/03/02 02:36:02;;;;;;;2.67;0.95;;;;;;;8.10;54.83;101550.38;4971847;28;20058;-73
2023/03/02 02:38:31;;;;;;;2.05;1.35;;;;;;;8.06;54.57;101543.28;4968875;28;20092;-72
2023/03/02 02:41:04;;;;;;;4.72;1.10;;;;;;;8.05;54.30;101554.41;4965863;28;20136;-73
2023/03/02 02:43:34;;;;;;;2.15;1.25;;;;;;;8.03;54.03;101548.28;4970833;28;20585;-73
2023/03/02 02:46:04;;;;;;;1.48;0.90;;;;;;;7.99;54.99;101546.34;4979496;28;20468;-72
2023/03/02 02:48:34;;;;;;;1.73;1.13;;;;;;;7.98;54.74;101547.16;4983095;28;20867;-73
2023/03/02 02:51:02;;;;;;;3.17;1.35;;;;;;;7.95;54.71;101552.16;4979942;28;20089;-73
2023/03/02 02:53:39;;;;;;;3.78;1.50;;;;;;;7.92;55.33;101547.69;4968230;28;20055;-73
2023/03/02 02:56:09;;;;;;;2.88;1.20;;;;;;;7.89;55.05;101549.25;4967532;28;20061;-74
2023/03/02 02:58:44;;;;;;;2.63;1.48;;;;;;;7.87;55.99;101549.16;4973250;28;20545;-74
2023/03/02 03:01:14;;;;;;;3.67;1.48;;;;;;;7.83;55.76;101548.91;4968694;28;20501;-73
2023/03/02 03:03:51;;;;;;;2.88;1.80;;;;;;;7.78;58.02;101537.47;4972771;28;20547;-73
2023/03/02 03:06:24;;;;;;;7.03;1.88;;;;;;;7.72;57.87;101546.66;4969060;28;20047;-73
2023/03/02 03:09:01;;;;;;;2.83;1.58;;;;;;;7.68;58.10;101542.16;4972725;28;20137;-73
2023/03/02 03:11:32;;;;;;;2.55;1.48;;;;;;;7.65;58.30;101531.69;4981525;28;20050;-73
2023/03/02 03:14:07;;;;;;;7.80;1.90;;;;;;;7.59;58.69;101546.81;4974035;28;20053;-73
2023/03/02 03:16:37;;;;;;;7.90;1.88;;;;;;;7.52;58.54;101547.28;4970165;28;20133;-74
2023/03/02 03:19:11;;;;;;;2.60;1.40;;;;;;;7.45;59.17;101542.59;4968784;28;20054;-73
2023/03/02 03:21:39;;;;;;;3.03;1.52;;;;;;;7.39;58.75;101537.97;4969221;28;20504;-72
2023/03/02 03:24:09;;;;;;;2.65;1.30;;;;;;;7.34;59.29;101527.44;4970938;28;20042;-73
2023/03/02 03:26:38;;;;;;;2.63;1.35;;;;;;;7.32;60.66;101535.88;4961552;28;20071;-73
2023/03/02 03:29:08;;;;;;;4.50;1.48;;;;;;;7.24;59.41;101525.16;4973459;28;20061;-73
2023/03/02 03:31:37;;;;;;;4.07;1.50;;;;;;;7.22;60.25;101523.31;4960828;28;20522;-74
2023/03/02 03:34:06;;;;;;;2.30;1.13;;;;;;;7.18;61.64;101532.53;4973241;28;20050;-73
2023/03/02 03:36:36;;;;;;;4.78;1.50;;;;;;;7.17;62.07;101530.78;4960022;28;20058;-72
2023/03/02 03:39:06;;;;;;;3.40;1.52;;;;;;;7.14;62.78;101531.47;4964555;28;20039;-73
2023/03/02 03:41:35;;;;;;;2.75;1.50;;;;;;;7.10;61.75;101533.78;4968887;28;20057;-73
2023/03/02 03:44:04;;;;;;;3.92;1.95;;;;;;;7.07;62.90;101528.47;4972119;28;20054;-73
2023/03/02 03:46:35;;;;;;;2.38;1.60;;;;;;;7.02;63.14;101524.78;4965287;28;20080;-73
2023/03/02 03:49:04;;;;;;;6.05;1.80;;;;;;;7.03;62.39;101523.94;4972284;28;20419;-72
2023/03/02 03:51:34;;;;;;;4.78;1.92;;;;;;;7.02;63.30;101512.78;4964248;28;20125;-73
2023/03/02 03:54:02;;;;;;;3.25;1.30;;;;;;;7.00;63.24;101500.63;4966395;28;20516;-73
2023/03/02 03:56:33;;;;;;;3.67;1.70;;;;;;;6.99;64.17;101491.16;4966471;28;20134;-73
2023/03/02 03:59:06;;;;;;;1.92;1.35;;;;;;;6.97;63.64;101485.03;4965077;28;20042;-73
2023/03/02 04:01:39;;;;;;;3.55;1.50;;;;;;;6.90;62.91;101470.94;4967353;28;20113;-72
2023/03/02 04:04:10;;;;;;;4.85;1.75;;;;;;;6.90;63.19;101468.38;4961571;28;20047;-73
2023/03/02 04:06:39;;;;;;;4.38;1.65;;;;;;;6.90;64.02;101466.69;4971437;28;20070;-72
2023/03/02 04:09:08;;;;;;;5.00;1.80;;;;;;;6.93;63.10;101468.53;4965810;28;20045;-72
2023/03/02 04:11:48;;;;;;;4.20;1.30;;;;;;;6.96;63.01;101478.09;4981309;28;20475;-72
2023/03/02 04:14:17;;;;;;;3.97;1.33;;;;;;;6.98;63.28;101482.53;4971353;28;20791;-72
2023/03/02 04:16:48;;;;;;;5.03;1.75;;;;;;;7.00;64.62;101491.22;4967517;28;20528;-73
2023/03/02 04:19:17;;;;;;;2.72;1.40;;;;;;;7.03;65.00;101483.69;4977337;28;20165;-72
2023/03/02 04:21:48;;;;;;;6.90;2.13;;;;;;;7.08;66.10;101489.09;4968852;28;20047;-72
2023/03/02 04:24:18;;;;;;;9.38;2.35;;;;;;;7.16;66.03;101487.81;4973302;28;20062;-72
2023/03/02 04:26:47;;;;;;;4.95;2.08;;;;;;;7.20;66.39;101483.72;4972343;28;20054;-73
2023/03/02 04:29:16;;;;;;;9.23;3.00;;;;;;;7.20;66.00;101483.72;4962197;28;20051;-73
2023/03/02 04:31:47;;;;;;;5.00;1.85;;;;;;;7.23;65.68;101484.75;4962341;28;20075;-72
2023/03/02 04:34:16;;;;;;;4.50;2.05;;;;;;;7.25;66.92;101493.47;4967266;28;20334;-71
2023/03/02 04:36:45;;;;;;;4.15;1.80;;;;;;;7.29;66.28;101492.84;4967562;28;20524;-71
2023/03/02 04:39:23;;;;;;;4.43;2.15;;;;;;;7.32;66.06;101500.72;4975389;28;20056;-71
2023/03/02 04:41:52;;;;;;;6.07;1.42;;;;;;;7.34;64.99;101493.09;4965540;28;20673;-71
2023/03/02 04:44:21;;;;;;;2.63;1.25;;;;;;;7.34;66.00;101498.22;4958135;28;20093;-73
2023/03/02 04:46:52;;;;;;;4.47;1.23;;;;;;;7.32;66.80;101508.44;4971000;28;20060;-73
2023/03/02 04:49:21;;;;;;;3.65;1.33;;;;;;;7.30;67.56;101512.59;4964021;28;20461;-72
2023/03/02 04:51:50;;;;;;;3.05;1.20;;;;;;;7.29;66.56;101518.56;4962943;28;20050;-71
2023/03/02 04:54:21;;;;;;;1.92;1.10;;;;;;;7.33;67.03;101525.66;4968179;28;20109;-72
2023/03/02 04:56:50;;;;;;;1.73;1.48;;;;;;;7.37;67.33;101536.13;4969751;28;20418;-72
2023/03/02 04:59:21;;;;;;;2.65;0.90;;;;;;;7.32;66.59;101521.31;4972545;28;20051;-72
2023/03/02 05:01:51;;;;;;;2.03;0.90;;;;;;;7.42;68.82;101538.16;4970777;28;20068;-72
2023/03/02 05:04:27;;;;;;;1.02;0.70;;;;;;;7.43;67.50;101533.91;4974274;28;20050;-71
2023/03/02 05:06:56;;;;;;;1.00;0.70;;;;;;;7.40;65.92;101528.56;4960177;28;20533;-72
2023/03/02 05:09:29;;;;;;;0.75;0.40;;;;;;;7.36;65.49;101531.78;4962023;28;20058;-72
2023/03/02 05:11:59;;;;;;;3.15;0.90;;;;;;;7.32;65.24;101534.19;4970381;28;20412;-72
2023/03/02 05:14:29;;;;;;;1.10;0.60;;;;;;;7.29;65.93;101528.00;4968320;28;20469;-73
2023/03/02 05:17:00;;;;;;;4.57;0.98;;;;;;;7.27;66.04;101539.88;4976325;28;20042;-72
2023/03/02 05:19:28;;;;;;;4.50;0.77;;;;;;;7.27;65.03;101538.19;4967831;28;20082;-72
2023/03/02 05:21:57;;;;;;;1.80;0.75;;;;;;;7.27;65.71;101543.34;4971193;28;20065;-72
2023/03/02 05:24:26;;;;;;;1.73;0.70;;;;;;;7.28;65.32;101544.22;4969082;28;20062;-73
2023/03/02 05:26:55;;;;;;;3.72;1.15;;;;;;;7.28;64.76;101544.22;4963173;28;20051;-72
2023/03/02 05:29:23;;;;;;;1.17;0.50;;;;;;;7.18;65.18;101529.97;4967829;28;20058;-73
2023/03/02 05:31:52;;;;;;;4.90;0.88;;;;;;;7.22;64.69;101534.50;4963888;28;20055;-72
2023/03/02 05:34:22;;;;;;;1.70;0.93;;;;;;;7.19;65.54;101539.44;4969601;28;20050;-73
2023/03/02 05:36:51;;;;;;;2.55;0.90;;;;;;;7.11;65.01;101530.44;4970431;28;20110;-74
2023/03/02 05:39:20;;;;;;;4.00;0.90;;;;;;;7.04;65.71;101538.63;4975459;28;20050;-73
2023/03/02 05:41:49;;;;;;;3.33;0.93;;;;;;;7.02;66.44;101529.91;4963686;28;20058;-73
2023/03/02 05:44:17;;;;;;;0.88;0.65;;;;;;;6.98;66.00;101533.09;4963543;28;20512;-71
2023/03/02 05:46:46;;;;;;;6.13;0.75;;;;;;;6.96;66.08;101529.56;4971097;28;20111;-72
2023/03/02 05:49:15;;;;;;;2.50;0.70;;;;;;;6.91;65.76;101521.59;4969104;28;20050;-71
2023/03/02 05:51:45;;;;;;;8.30;1.30;;;;;;;6.86;65.50;101518.75;4969768;28;20060;-73
2023/03/02 05:54:14;;;;;;;1.02;0.65;;;;;;;6.80;66.07;101518.38;4975548;28;20046;-74
2023/03/02 05:56:43;;;;;;;2.28;0.57;;;;;;;6.72;66.55;101510.25;4978606;28;20050;-73
2023/03/02 05:59:11;;;;;;;2.42;0.80;;;;;;;6.70;67.19;101509.28;4968180;28;20501;-73
2023/03/02 06:01:40;;;;;;;1.70;0.82;;;;;;;6.71;67.19;101512.72;4978191;28;20046;-74
2023/03/02 06:04:08;;;;;;;2.17;0.70;;;;;;;6.68;68.05;101512.56;4966719;28;20055;-73
2023/03/02 06:06:37;;;;;;;4.07;1.15;;;;;;;6.65;68.37;101512.41;4954629;28;20048;-73
2023/03/02 06:09:07;;;;;;;2.97;1.00;;;;;;;6.64;68.88;101513.19;4956651;28;20122;-74
2023/03/02 06:11:36;;;;;;;2.97;1.45;;;;;;;6.61;69.06;101513.88;4945529;28;20047;-73
2023/03/02 06:14:04;;;;;;;2.03;1.10;;;;;;;6.61;69.37;101513.88;4960420;28;20607;-72
2023/03/02 06:16:34;;;;;;;3.28;1.15;;;;;;;6.56;69.48;101501.59;4948269;28;20515;-73
2023/03/02 06:19:03;;;;;;;2.42;0.73;;;;;;;6.54;69.75;101503.19;4953998;28;20106;-72
2023/03/02 06:21:31;;;;;;;1.35;0.60;;;;;;;6.52;70.61;101509.91;4958199;28;20618;-73
2023/03/02 06:24:00;;;;;;;3.78;1.00;;;;;;;6.52;70.70;101504.78;4957222;28;20509;-73
2023/03/02 06:26:30;;;;;;;2.60;0.82;;;;;;;6.49;70.86;101501.22;4952414;28;20059;-74
2023/03/02 06:28:59;;;;;;;5.60;1.13;;;;;;;6.44;71.77;101494.94;4952207;28;20067;-73
2023/03/02 06:31:27;;;;;;;1.58;0.60;;;;;;;6.42;72.82;101498.22;4954227;28;20056;-73
2023/03/02 06:33:56;;;;;;;3.35;0.95;;;;;;;6.39;72.86;101493.78;4956318;28;20054;-74
2023/03/02 06:36:25;;;;;;;1.27;0.70;;;;;;;6.38;72.25;101510.00;4950341;28;20047;-74
2023/03/02 06:38:53;;;;;;;1.95;0.80;;;;;;;6.42;72.19;101500.78;4946838;28;20055;-74
2023/03/02 06:41:22;;;;;;;4.53;0.82;;;;;;;6.45;72.57;101509.53;4958055;28;20408;-73
2023/03/02 06:43:52;;;;;;;3.28;0.90;;;;;;;6.47;71.85;101505.38;4955047;28;20051;-74
2023/03/02 06:46:20;;;;;;;4.80;0.70;;;;;;;6.50;71.55;101508.16;4957783;28;20537;-74
2023/03/02 06:48:49;;;;;;;3.25;0.80;;;;;;;6.44;70.78;101492.38;4955545;28;20051;-73
2023/03/02 06:51:18;;;;;;;4.55;0.70;;;;;;;6.46;71.57;101487.31;4963845;28;20121;-74
2023/03/02 06:53:47;;;;;;;2.70;1.08;;;;;;;6.45;73.73;101493.25;4948880;28;20056;-73
2023/03/02 06:56:15;;;;;;;1.55;0.90;;;;;;;6.44;73.47;101491.47;4948333;28;20046;-74
2023/03/02 06:58:44;;;;;;;1.85;0.70;;;;;;;6.46;72.75;101495.91;4952392;28;20061;-72
2023/03/02 07:01:14;;;;;;;1.45;0.60;;;;;;;6.48;72.49;101493.41;4956770;28;20146;-72
2023/03/02 07:03:43;;;;;;;2.95;1.10;;;;;;;6.46;71.80;101490.78;4963090;28;20457;-73
2023/03/02 07:06:13;;;;;;;4.50;1.13;;;;;;;6.42;72.38;101480.22;4970167;28;20551;-73
2023/03/02 07:08:42;;;;;;;1.67;0.90;;;;;;;6.42;72.93;101475.97;4969600;28;20105;-72
2023/03/02 07:11:12;;;;;;;2.05;0.80;;;;;;;6.41;73.02;101476.75;4971600;28;20508;-71
2023/03/02 07:13:41;;;;;;;3.47;1.30;;;;;;;6.37;73.45;101479.94;4971495;28;20428;-72
2023/03/02 07:16:14;;;;;;;2.13;1.10;;;;;;;6.34;73.28;101479.75;4968482;28;20046;-72
2023/03/02 07:18:43;;;;;;;5.85;0.90;;;;;;;6.31;73.87;101478.72;4970340;28;21212;-72
2023/03/02 07:21:11;;;;;;;5.03;1.42;;;;;;;6.30;74.64;101482.97;4970481;28;20050;-72
2023/03/02 07:23:40;;;;;;;4.88;1.02;;;;;;;6.28;73.48;101499.97;4973221;28;20050;-73
2023/03/02 07:26:09;;;;;;;2.00;0.85;;;;;;;6.25;75.02;101490.41;4975759;28;20046;-72
2023/03/02 07:28:38;;;;;;;1.63;1.08;;;;;;;6.26;75.30;101491.28;4970030;28;20051;-72
2023/03/02 07:31:08;;;;;;;1.25;0.70;;;;;;;6.25;75.39;101497.22;4971913;28;20142;-73
2023/03/02 07:33:39;;;;;;;3.95;0.85;;;;;;;6.23;75.26;101493.66;4971885;28;20058;-73
2023/03/02 07:36:09;;;;;;;2.95;1.20;;;;;;;6.20;75.57;101490.91;4972803;28;20053;-74
2023/03/02 07:38:39;;;;;;;5.40;0.93;;;;;;;6.16;76.01;101491.53;4966700;28;20054;-73
2023/03/02 07:41:11;;;;;;;2.58;1.15;;;;;;;6.11;76.44;101491.25;4971218;28;20530;-72
2023/03/02 07:43:40;;;;;;;3.35;1.23;;;;;;;6.07;77.01;101505.63;4969822;28;20050;-72
2023/03/02 07:46:08;;;;;;;1.80;1.17;;;;;;;6.05;77.21;101496.94;4969256;28;20055;-73
2023/03/02 07:48:39;;;;;;;2.28;1.30;;;;;;;6.03;77.20;101497.66;4973390;28;20555;-73
2023/03/02 07:51:08;;;;;;;3.80;0.95;;;;;;;6.00;77.97;101503.50;4971628;28;20539;-73
2023/03/02 07:53:37;;;;;;;5.20;1.17;;;;;;;6.01;77.86;101505.25;4978926;28;20381;-72
2023/03/02 07:56:10;;;;;;;2.03;1.10;;;;;;;6.02;77.57;101518.97;4968426;28;20432;-73
2023/03/02 07:58:39;;;;;;;1.48;1.15;;;;;;;6.02;77.35;101509.56;4970107;28;20059;-72
2023/03/02 08:01:08;;;;;;;3.97;1.13;;;;;;;6.04;77.75;101514.81;4975888;28;20515;-72
2023/03/02 08:03:38;;;;;;;0.90;0.73;;;;;;;6.04;76.81;101525.97;4969749;28;20497;-74
2023/03/02 08:06:09;;;;;;;3.67;1.30;;;;;;;5.98;77.48;101523.06;4977653;28;20054;-72
2023/03/02 08:08:38;;;;;;;3.15;1.40;;;;;;;5.91;77.20;101519.97;4971956;28;20139;-74
2023/03/02 08:11:08;;;;;;;1.48;0.95;;;;;;;5.88;77.15;101505.25;4969888;28;20058;-73
2023/03/02 08:13:37;;;;;;;6.95;1.85;;;;;;;5.86;77.25;101499.16;4956086;28;20512;-73
2023/03/02 08:16:07;;;;;;;4.25;1.40;;;;;;;5.76;77.63;101476.28;4968824;28;20397;-74
2023/03/02 08:18:38;;;;;;;7.75;1.67;;;;;;;5.81;78.25;101496.31;4975682;28;20038;-73
2023/03/02 08:21:13;;;;;;;4.68;1.15;;;;;;;5.79;78.90;101491.88;4966579;28;20049;-74
2023/03/02 08:23:42;;;;;;;3.05;1.05;;;;;;;5.72;78.74;101485.47;4970932;28;20062;-72
2023/03/02 08:26:11;;;;;;;2.30;0.85;;;;;;;5.66;79.10;101483.44;4969425;28;20084;-73
2023/03/02 08:28:40;;;;;;;4.20;1.02;;;;;;;5.65;80.07;101479.06;4969739;28;20051;-73
2023/03/02 08:31:09;;;;;;;3.25;1.23;;;;;;;5.61;79.95;101471.09;4965664;28;20069;-73
2023/03/02 08:33:40;;;;;;;1.65;1.00;;;;;;;5.54;80.35;101474.09;4970748;28;20593;-73
2023/03/02 08:36:12;;;;;;;1.30;1.13;;;;;;;5.53;80.51;101473.19;4963485;28;20297;-73
2023/03/02 08:38:40;;;;;;;3.03;1.27;;;;;;;5.51;80.75;101472.22;4973217;28;20180;-73
2023/03/02 08:41:11;;;;;;;3.15;1.10;;;;;;;5.49;81.00;101466.09;4967608;28;20100;-73
2023/03/02 08:43:40;;;;;;;4.75;1.50;;;;;;;5.50;81.23;101477.25;4966030;28;20059;-73
2023/03/02 08:46:11;;;;;;;2.05;0.98;;;;;;;5.47;81.63;101470.25;4969555;28;20732;-73
2023/03/02 08:48:41;;;;;;;2.65;1.45;;;;;;;5.49;82.10;101475.50;4969962;28;20803;-73
2023/03/02 08:51:13;;;;;;;3.92;1.10;;;;;;;5.47;81.81;101477.94;4971620;28;20490;-74
2023/03/02 08:53:44;;;;;;;3.28;1.50;;;;;;;5.43;82.39;101473.44;4969157;28;20628;-73
2023/03/02 08:56:22;;;;;;;2.28;1.10;;;;;;;5.41;82.51;101475.03;4969112;28;20046;-73
2023/03/02 08:58:52;;;;;;;3.80;1.63;;;;;;;5.42;82.84;101469.97;4971066;28;20819;-74
2023/03/02 09:01:22;;;;;;;3.58;1.05;;;;;;;5.40;82.74;101468.09;4973430;28;20781;-73
2023/03/02 09:03:53;;;;;;;1.40;0.85;;;;;;;5.41;83.11;101462.19;4968387;28;20662;-74
2023/03/02 09:06:22;;;;;;;2.05;1.30;;;;;;;5.40;83.54;101460.41;4968345;28;20083;-73
2023/03/02 09:08:50;;;;;;;2.70;1.23;;;;;;;5.39;83.52;101456.97;4969282;28;20055;-74
2023/03/02 09:11:19;;;;;;;4.40;1.35;;;;;;;5.36;83.61;101459.34;4965234;28;20058;-74
2023/03/02 09:13:48;;;;;;;2.60;0.85;;;;;;;5.37;84.22;101455.97;4966625;28;20054;-73
2023/03/02 09:16:19;;;;;;;1.33;1.00;;;;;;;5.36;83.82;101463.56;4974737;28;20061;-73
2023/03/02 09:18:49;;;;;;;3.10;1.27;;;;;;;5.34;84.20;101462.63;4971020;28;20113;-73
2023/03/02 09:21:19;;;;;;;1.77;1.23;;;;;;;5.33;85.04;101463.38;4965260;28;20043;-73
2023/03/02 09:23:52;;;;;;;5.78;1.02;;;;;;;5.31;84.56;101465.84;4969794;28;20236;-72
2023/03/02 09:26:21;;;;;;;1.23;0.80;;;;;;;5.32;85.00;101459.06;4969949;28;20047;-72
2023/03/02 09:28:49;;;;;;;4.13;1.27;;;;;;;5.31;85.42;101464.97;4967592;28;20050;-74
2023/03/02 09:31:18;;;;;;;1.63;0.95;;;;;;;5.31;85.62;101468.41;4969978;28;20390;-74
2023/03/02 09:33:47;;;;;;;4.95;1.35;;;;;;;5.31;85.79;101457.28;4969378;28;20049;-75
2023/03/02 09:36:22;;;;;;;2.10;0.85;;;;;;;5.34;85.56;101452.34;4968203;28;20492;-74
2023/03/02 09:38:51;;;;;;;1.48;0.70;;;;;;;5.36;85.83;101454.22;4962048;28;20058;-73
2023/03/02 09:41:48;;;;;;;2.15;0.80;;;;;;;5.38;85.46;101451.72;4967240;28;20046;-73
2023/03/02 09:44:36;;;;;;;2.20;1.00;;;;;;;5.36;85.56;101463.56;4969219;28;20635;-74
2023/03/02 09:47:13;;;;;;;1.75;1.25;;;;;;;5.40;85.62;101471.56;4969458;28;20595;-74
2023/03/02 09:49:56;;;;;;;1.92;0.77;;;;;;;5.43;85.22;101468.31;4965512;28;20074;-74
2023/03/02 09:52:30;;;;;;;;;;;;;;;5.41;85.53;101475.03;4966094;28;20640;-74
2023/03/02 09:55:09;;;;;;;2.80;1.08;;;;;;;5.41;85.82;101462.19;4964959;28;19933;-74
2023/03/02 09:57:40;;;;;;;2.25;0.85;;;;;;;5.39;85.73;101461.22;4972306;28;20054;-73
2023/03/02 10:00:14;;;;;;;2.83;1.27;;;;;;;5.41;85.80;101463.06;4968306;28;20048;-73
2023/03/02 10:02:49;;;;;;;2.50;1.10;;;;;;;5.42;85.84;101463.97;4969914;28;20572;-73
2023/03/02 10:05:22;;;;;;;1.42;0.60;;;;;;;5.38;86.39;101451.72;4969513;28;20062;-74
2023/03/02 10:07:52;;;;;;;3.20;1.52;;;;;;;5.39;86.49;101444.13;4964450;28;20055;-73
2023/03/02 10:10:27;;;;;;;3.08;1.00;;;;;;;5.39;86.81;101439.00;4967732;28;20043;-73
2023/03/02 10:13:11;;;;;;;2.40;1.00;;;;;;;5.39;87.47;101425.28;4963255;28;20062;-73
2023/03/02 10:15:48;;;;;;;7.82;1.42;;;;;;;5.39;87.92;101425.28;4967377;28;20138;-72
2023/03/02 10:18:24;;;;;;;2.80;0.68;;;;;;;5.35;88.09;101426.75;4971084;28;20644;-73
2023/03/02 10:21:04;;;;;;;1.65;0.98;;;;;;;5.28;88.36;101424.63;4969458;28;20622;-74
2023/03/02 10:23:47;;;;;;;2.35;1.05;;;;;;;5.24;89.17;101425.22;4966978;28;20046;-74
2023/03/02 10:26:38;;;;;;;3.13;1.10;;;;;;;5.17;88.52;101406.00;4971681;28;20055;-73
2023/03/02 10:29:24;;;;;;;3.40;0.90;;;;;;;5.19;88.60;101419.81;4966215;28;20050;-72
2023/03/02 10:31:59;;;;;;;2.35;1.00;;;;;;;5.17;87.66;101418.81;4965124;28;20568;-73
2023/03/02 10:34:30;;;;;;;3.83;0.98;;;;;;;5.17;88.14;101416.25;4963586;28;20047;-73
2023/03/02 10:36:59;;;;;;;1.80;1.00;;;;;;;5.20;88.53;101413.91;4966428;28;20054;-74
2023/03/02 10:39:30;;;;;;;6.35;0.95;;;;;;;5.23;87.68;101420.88;4972530;28;20059;-73
2023/03/02 10:42:03;;;;;;;2.50;0.85;;;;;;;5.24;87.67;101418.44;4970146;28;21295;-73
2023/03/02 10:44:36;;;;;;;2.53;1.13;;;;;;;5.22;87.26;101424.22;4966762;28;20055;-74
2023/03/02 10:47:06;;;;;;;6.07;1.10;;;;;;;5.19;87.04;101413.78;4970335;28;20079;-73
2023/03/02 10:49:38;;;;;;;1.35;0.70;;;;;;;5.20;86.93;101406.19;4972039;28;20103;-73
2023/03/02 10:52:13;;;;;;;3.03;1.00;;;;;;;5.19;87.01;101399.28;4970053;28;20089;-75
2023/03/02 10:54:43;;;;;;;2.85;0.82;;;;;;;5.19;87.04;101383.88;4967192;28;20059;-74
2023/03/02 10:57:29;;;;;;;4.72;1.00;;;;;;;5.16;86.93;101383.72;4968834;28;20051;-74
2023/03/02 11:00:03;;;;;;;1.35;0.90;;;;;;;5.17;86.32;101385.47;4971133;28;20046;-73
2023/03/02 11:02:36;;;;;;;1.40;0.95;;;;;;;5.16;86.52;101378.56;4967786;28;20509;-74
2023/03/02 11:05:24;;;;;;;1.83;0.55;;;;;;;5.10;86.48;101383.31;4962966;28;20134;-73
2023/03/02 11:07:58;;;;;;;1.15;0.80;;;;;;;5.13;87.13;101377.47;4955590;28;20047;-72
2023/03/02 11:10:30;;;;;;;2.22;0.93;;;;;;;5.14;87.15;101379.28;4954105;28;20455;-72
2023/03/02 11:13:01;;;;;;;1.15;0.68;;;;;;;5.10;87.30;101383.31;4956837;28;20050;-74
2023/03/02 11:15:37;;;;;;;2.67;1.10;;;;;;;5.12;87.23;101379.16;4953999;28;20059;-74
2023/03/02 11:18:12;;;;;;;3.47;0.85;;;;;;;5.13;87.99;101378.41;4948182;28;20083;-73
2023/03/02 11:20:44;;;;;;;2.33;0.90;;;;;;;5.09;87.89;101368.75;4950734;28;20409;-72
2023/03/02 11:23:26;;;;;;;3.75;1.15;;;;;;;5.07;87.55;101354.94;4951669;28;20069;-73
2023/03/02 11:25:59;;;;;;;1.83;1.02;;;;;;;5.14;88.18;101356.19;4954953;28;20386;-74
2023/03/02 11:28:39;;;;;;;1.65;0.82;;;;;;;5.10;87.88;101346.53;4952630;28;20082;-74
2023/03/02 11:31:17;;;;;;;4.30;1.05;;;;;;;5.11;87.50;101343.16;4959461;28;20055;-74
2023/03/02 11:34:00;;;;;;;2.00;0.82;;;;;;;5.09;87.60;101331.94;4951452;28;20056;-73
2023/03/02 11:36:36;;;;;;;;;;;;;;;5.06;88.02;101329.16;4955818;28;20055;-73
2023/03/02 11:39:08;;;;;;;3.03;0.93;;;;;;;5.01;87.71;101321.19;4941991;28;19981;-74
2023/03/02 11:41:38;;;;;;;2.00;0.57;;;;;;;4.98;87.60;101310.75;4954112;28;20039;-74
2023/03/02 11:44:15;;;;;;;2.58;1.00;;;;;;;4.89;87.49;101312.78;4951234;28;20716;-74
2023/03/02 11:46:47;;;;;;;1.98;0.65;;;;;;;4.82;88.84;101304.69;4954369;28;20103;-73
2023/03/02 11:49:22;;;;;;;1.25;0.80;;;;;;;4.89;89.29;101302.50;4954769;28;20066;-72
2023/03/02 11:51:57;;;;;;;3.28;1.00;;;;;;;4.82;88.59;101302.13;4952222;28;20058;-76